Time;durP1;ratioP1;P1;durP2;ratioP2;P2;SDS_P1;SDS_P2;PMS_P1;PMS_P2;Temp;Humidity;BMP_temperature;BMP_pressure;BME280_temperature;BME280_humidity;BME280_pressure;Samples;Min_cycle;Max_cycle;Signal;HPM_P1;HPM_P2
2023/07/11 00:00:53;;;;;;;10.82;5.95;;;;;;;-141.20;100.00;60650.00;5050496;28;20025;-74
2023/07/11 00:03:19;;;;;;;7.07;5.90;;;;;;;-141.20;100.00;60650.00;5059035;28;20120;-74
2023/07/11 00:06:00;;;;;;;7.47;5.55;;;;;;;-141.20;100.00;60650.00;5048198;28;20044;-74
2023/07/11 00:08:25;;;;;;;7.45;5.80;;;;;;;-141.20;100.00;60650.00;5081177;28;20368;-73
2023/07/11 00:10:50;;;;;;;6.80;5.40;;;;;;;-141.20;100.00;60650.00;5054885;28;20031;-73
2023/07/11 00:13:16;;;;;;;6.90;5.10;;;;;;;-141.20;100.00;60650.00;5072334;28;20048;-73
2023/07/11 00:15:41;;;;;;;6.90;5.22;;;;;;;-141.20;100.00;60650.00;5057943;28;20112;-73
2023/07/11 00:18:06;;;;;;;8.52;5.60;;;;;;;-141.20;100.00;60650.00;5058770;28;20033;-73
2023/07/11 00:20:32;;;;;;;9.43;5.68;;;;;;;-141.20;100.00;60650.00;5065950;28;20116;-74
2023/07/11 00:22:57;;;;;;;6.53;5.30;;;;;;;-141.20;100.00;60650.00;5063167;28;20093;-74
2023/07/11 00:25:23;;;;;;;8.98;6.68;;;;;;;-141.20;100.00;60650.00;5057379;28;20036;-74
2023/07/11 00:27:48;;;;;;;10.13;7.72;;;;;;;-141.20;100.00;60650.00;5058706;28;20040;-73
2023/07/11 00:30:14;;;;;;;10.27;7.88;;;;;;;-141.20;100.00;60650.00;5064290;28;20098;-73
2023/07/11 00:32:39;;;;;;;7.95;7.00;;;;;;;-141.20;100.00;60650.00;5052011;28;20478;-73
2023/07/11 00:35:05;;;;;;;9.20;7.60;;;;;;;-141.20;100.00;60650.00;5036591;28;20049;-73
2023/07/11 00:37:31;;;;;;;9.77;7.70;;;;;;;-141.20;100.00;60650.00;5037587;28;20517;-74
2023/07/11 00:39:56;;;;;;;9.55;7.35;;;;;;;-141.20;100.00;60650.00;5054035;28;20088;-73
2023/07/11 00:42:22;;;;;;;8.63;7.10;;;;;;;-141.20;100.00;60650.00;5042917;28;20033;-73
2023/07/11 00:45:25;;;;;;;10.68;7.43;;;;;;;-141.20;100.00;60650.00;5051651;28;20032;-73
2023/07/11 00:47:51;;;;;;;9.30;7.22;;;;;;;-141.20;100.00;60650.00;5063752;28;20056;-73
2023/07/11 00:50:16;;;;;;;8.52;6.95;;;;;;;-141.20;100.00;60650.00;5061047;28;20025;-72
2023/07/11 00:52:41;;;;;;;8.38;6.95;;;;;;;-141.20;100.00;60650.00;5056757;28;20039;-73
2023/07/11 00:55:10;;;;;;;9.38;6.95;;;;;;;-141.20;100.00;60650.00;5050563;28;20021;-73
2023/07/11 00:57:38;;;;;;;9.23;6.95;;;;;;;-141.20;100.00;60650.00;5031160;28;20072;-72
2023/07/11 01:00:04;;;;;;;7.80;6.70;;;;;;;-141.20;100.00;60650.00;5050423;28;20112;-72
2023/07/11 01:02:31;;;;;;;9.98;6.63;;;;;;;-141.20;100.00;60650.00;5064734;28;20117;-72
2023/07/11 01:04:58;;;;;;;7.72;6.85;;;;;;;-141.20;100.00;60650.00;5045282;28;20024;-73
2023/07/11 01:07:31;;;;;;;9.73;7.18;;;;;;;-141.20;100.00;60650.00;5050167;28;20120;-73
2023/07/11 01:09:57;;;;;;;9.07;7.72;;;;;;;-141.20;100.00;60650.00;5053589;28;20036;-73
2023/07/11 01:12:23;;;;;;;8.63;6.53;;;;;;;-141.20;100.00;60650.00;5064584;28;20395;-74
2023/07/11 01:14:50;;;;;;;7.75;6.75;;;;;;;-141.20;100.00;60650.00;5029115;28;20037;-74
2023/07/11 01:17:29;;;;;;;7.63;6.82;;;;;;;-141.20;100.00;60650.00;5064191;28;20059;-73
2023/07/11 01:19:56;;;;;;;10.20;7.25;;;;;;;-141.20;100.00;60650.00;5064573;28;20029;-73
2023/07/11 01:22:23;;;;;;;11.10;7.25;;;;;;;-141.20;100.00;60650.00;5050129;28;20032;-74
2023/07/11 01:24:49;;;;;;;8.68;6.75;;;;;;;-141.20;100.00;60650.00;5062379;28;20128;-73
2023/07/11 01:27:15;;;;;;;11.00;7.53;;;;;;;-141.20;100.00;60650.00;5062040;28;20021;-73
2023/07/11 01:29:41;;;;;;;12.00;7.00;;;;;;;-141.20;100.00;60650.00;5045845;28;20036;-73
2023/07/11 01:32:07;;;;;;;9.38;7.03;;;;;;;-141.20;100.00;60650.00;5063303;28;20712;-72
2023/07/11 01:34:33;;;;;;;9.70;6.88;;;;;;;-141.20;100.00;60650.00;5047675;28;20059;-72
2023/07/11 01:36:58;;;;;;;8.27;6.40;;;;;;;-141.20;100.00;60650.00;5069533;28;20609;-72
2023/07/11 01:39:23;;;;;;;8.10;6.60;;;;;;;-141.20;100.00;60650.00;5068459;28;20040;-73
2023/07/11 01:41:49;;;;;;;8.48;6.60;;;;;;;-141.20;100.00;60650.00;5057347;28;20032;-72
2023/07/11 01:44:14;;;;;;;8.18;6.85;;;;;;;-141.20;100.00;60650.00;5051733;28;20036;-72
2023/07/11 01:46:42;;;;;;;10.25;6.85;;;;;;;-141.20;100.00;60650.00;5057517;28;20020;-72
2023/07/11 01:49:07;;;;;;;8.82;6.90;;;;;;;-141.20;100.00;60650.00;5069785;28;20024;-73
2023/07/11 01:51:32;;;;;;;8.30;6.93;;;;;;;-141.20;100.00;60650.00;5069740;28;20059;-73
2023/07/11 01:53:58;;;;;;;8.13;6.70;;;;;;;-141.20;100.00;60650.00;5050560;28;20029;-72
2023/07/11 01:56:23;;;;;;;9.40;6.90;;;;;;;-141.20;100.00;60650.00;5049572;28;20360;-73
2023/07/11 01:58:49;;;;;;;8.65;6.78;;;;;;;-141.20;100.00;60650.00;5063343;28;20070;-73
2023/07/11 02:01:14;;;;;;;8.98;7.53;;;;;;;-141.20;100.00;60650.00;5040747;28;20056;-72
2023/07/11 02:03:40;;;;;;;8.52;6.20;;;;;;;-141.20;100.00;60650.00;5056944;28;20479;-72
2023/07/11 02:06:05;;;;;;;8.68;7.13;;;;;;;-141.20;100.00;60650.00;5069893;28;20029;-73
2023/07/11 02:08:31;;;;;;;9.75;6.78;;;;;;;-141.20;100.00;60650.00;5050687;28;20041;-73
2023/07/11 02:10:56;;;;;;;8.55;6.35;;;;;;;-141.20;100.00;60650.00;5053393;28;20112;-73
2023/07/11 02:13:21;;;;;;;8.95;6.80;;;;;;;-141.20;100.00;60650.00;5052052;28;20037;-73
2023/07/11 02:15:47;;;;;;;8.82;6.82;;;;;;;-141.20;100.00;60650.00;5049959;28;20021;-73
2023/07/11 02:18:12;;;;;;;8.98;7.05;;;;;;;-141.20;100.00;60650.00;5049660;28;20045;-73
2023/07/11 02:20:43;;;;;;;7.38;6.57;;;;;;;-141.20;100.00;60650.00;5049384;28;20104;-73
2023/07/11 02:23:09;;;;;;;8.13;6.90;;;;;;;-141.20;100.00;60650.00;5049214;28;20121;-73
2023/07/11 02:25:35;;;;;;;9.13;6.97;;;;;;;-141.20;100.00;60650.00;5021321;28;20147;-73
2023/07/11 02:28:01;;;;;;;8.80;7.47;;;;;;;-141.20;100.00;60650.00;5064568;28;20040;-72
2023/07/11 02:30:26;;;;;;;9.48;7.07;;;;;;;-141.20;100.00;60650.00;5069995;28;20021;-72
2023/07/11 02:32:52;;;;;;;9.82;6.93;;;;;;;-141.20;100.00;60650.00;5069980;28;20653;-72
2023/07/11 02:35:17;;;;;;;10.93;6.50;;;;;;;-141.20;100.00;60650.00;5069749;28;20466;-72
2023/07/11 02:37:42;;;;;;;9.98;6.75;;;;;;;-141.20;100.00;60650.00;5056519;28;20111;-72
2023/07/11 02:40:08;;;;;;;9.15;6.80;;;;;;;-141.20;100.00;60650.00;5070158;28;20119;-72
2023/07/11 02:42:34;;;;;;;9.07;6.30;;;;;;;-141.20;100.00;60650.00;5051529;28;20040;-71
2023/07/11 02:44:59;;;;;;;8.07;6.30;;;;;;;-141.20;100.00;60650.00;5062245;28;20029;-73
2023/07/11 02:47:24;;;;;;;9.80;7.03;;;;;;;-141.20;100.00;60650.00;5043070;28;20505;-72
2023/07/11 02:49:50;;;;;;;10.85;6.97;;;;;;;-141.20;100.00;60650.00;5071721;28;20035;-73
2023/07/11 02:52:15;;;;;;;11.70;6.65;;;;;;;-141.20;100.00;60650.00;5044119;28;20451;-71
2023/07/11 02:54:40;;;;;;;11.68;6.43;;;;;;;-141.20;100.00;60650.00;5074881;28;20024;-72
2023/07/11 02:57:07;;;;;;;8.85;6.35;;;;;;;-141.20;100.00;60650.00;5074806;28;20444;-72
2023/07/11 02:59:33;;;;;;;11.02;6.35;;;;;;;-141.20;100.00;60650.00;5053593;28;20032;-70
2023/07/11 03:01:58;;;;;;;11.98;6.05;;;;;;;-141.20;100.00;60650.00;5069350;28;20029;-71
2023/07/11 03:04:25;;;;;;;6.93;5.50;;;;;;;-141.20;100.00;60650.00;5073661;28;20773;-71
2023/07/11 03:06:54;;;;;;;10.05;6.80;;;;;;;-141.20;100.00;60650.00;5074523;28;20479;-71
2023/07/11 03:09:19;;;;;;;7.40;6.35;;;;;;;-141.20;100.00;60650.00;5053430;28;20106;-71
2023/07/11 03:11:44;;;;;;;10.00;6.38;;;;;;;-141.20;100.00;60650.00;5068265;28;20040;-72
2023/07/11 03:14:10;;;;;;;8.13;6.82;;;;;;;-141.20;100.00;60650.00;5075199;28;20028;-73
2023/07/11 03:16:35;;;;;;;9.70;7.00;;;;;;;-141.20;100.00;60650.00;5053750;28;20048;-74
2023/07/11 03:19:01;;;;;;;10.68;7.32;;;;;;;-141.20;100.00;60650.00;5042678;28;20526;-72
2023/07/11 03:21:26;;;;;;;10.75;6.97;;;;;;;-141.20;100.00;60650.00;5074103;28;20032;-73
2023/07/11 03:23:51;;;;;;;12.13;7.53;;;;;;;-141.20;100.00;60650.00;5039656;28;20028;-73
2023/07/11 03:26:17;;;;;;;11.30;7.07;;;;;;;-141.20;100.00;60650.00;5062483;28;20162;-73
2023/07/11 03:28:42;;;;;;;8.65;6.97;;;;;;;-141.20;100.00;60650.00;5051772;28;20020;-73
2023/07/11 03:31:07;;;;;;;10.65;7.13;;;;;;;-141.20;100.00;60650.00;5057029;28;20169;-75
2023/07/11 03:33:33;;;;;;;8.10;6.65;;;;;;;-141.20;100.00;60650.00;5072280;28;20029;-71
2023/07/11 03:35:58;;;;;;;11.10;7.80;;;;;;;-141.20;100.00;60650.00;5072924;28;20177;-72
2023/07/11 03:38:23;;;;;;;10.23;7.25;;;;;;;-141.20;100.00;60650.00;5073931;28;20016;-72
2023/07/11 03:40:49;;;;;;;10.82;7.03;;;;;;;-141.20;100.00;60650.00;5052474;28;20120;-71
2023/07/11 03:43:14;;;;;;;8.95;7.10;;;;;;;-141.20;100.00;60650.00;5071425;28;20036;-70
2023/07/11 03:45:43;;;;;;;9.05;6.50;;;;;;;-141.20;100.00;60650.00;5060392;28;20048;-71
2023/07/11 03:48:09;;;;;;;8.35;6.93;;;;;;;-141.20;100.00;60650.00;5071585;28;20021;-70
2023/07/11 03:50:34;;;;;;;9.27;6.90;;;;;;;-141.20;100.00;60650.00;5073432;28;20115;-71
2023/07/11 03:53:00;;;;;;;7.90;6.80;;;;;;;-141.20;100.00;60650.00;5073004;28;20029;-71
2023/07/11 03:55:25;;;;;;;10.30;6.68;;;;;;;-141.20;100.00;60650.00;5055160;28;20120;-72
2023/07/11 03:57:50;;;;;;;8.60;6.78;;;;;;;-141.20;100.00;60650.00;5071918;28;20523;-72
2023/07/11 04:00:16;;;;;;;8.48;6.60;;;;;;;-141.20;100.00;60650.00;5054372;28;20040;-73
2023/07/11 04:02:42;;;;;;;9.63;6.97;;;;;;;-141.20;100.00;60650.00;5051758;28;20025;-71
2023/07/11 04:05:07;;;;;;;13.45;7.30;;;;;;;-141.20;100.00;60650.00;5053182;28;20411;-71
2023/07/11 04:07:33;;;;;;;9.93;7.18;;;;;;;-141.20;100.00;60650.00;5051735;28;20031;-71
2023/07/11 04:09:58;;;;;;;8.13;6.88;;;;;;;-141.20;100.00;60650.00;5064119;28;20036;-71
2023/07/11 04:12:23;;;;;;;11.38;7.25;;;;;;;-141.20;100.00;60650.00;5065562;28;20359;-71
2023/07/11 04:14:49;;;;;;;9.77;7.22;;;;;;;-141.20;100.00;60650.00;5051038;28;20041;-71
2023/07/11 04:17:14;;;;;;;8.93;6.40;;;;;;;-141.20;100.00;60650.00;5052491;28;20108;-71
2023/07/11 04:19:39;;;;;;;11.00;7.70;;;;;;;-141.20;100.00;60650.00;5051244;28;20037;-71
2023/07/11 04:22:05;;;;;;;14.10;7.13;;;;;;;-141.20;100.00;60650.00;5051306;28;20028;-72
2023/07/11 04:24:30;;;;;;;11.50;7.13;;;;;;;-141.20;100.00;60650.00;5051511;28;20043;-74
2023/07/11 04:26:55;;;;;;;10.00;7.30;;;;;;;-141.20;100.00;60650.00;5052177;28;20079;-73
2023/07/11 04:29:21;;;;;;;9.10;7.50;;;;;;;-141.20;100.00;60650.00;5046362;28;20037;-73
2023/07/11 04:31:46;;;;;;;12.48;7.35;;;;;;;-141.20;100.00;60650.00;5053246;28;20028;-74
2023/07/11 04:34:12;;;;;;;12.52;7.82;;;;;;;-141.20;100.00;60650.00;5062699;28;20037;-74
2023/07/11 04:36:37;;;;;;;8.43;7.05;;;;;;;-141.20;100.00;60650.00;5054197;28;20039;-73
2023/07/11 04:39:03;;;;;;;8.73;7.13;;;;;;;-141.20;100.00;60650.00;5070918;28;20048;-73
2023/07/11 04:41:28;;;;;;;9.75;7.13;;;;;;;-141.20;100.00;60650.00;5052209;28;20032;-73
2023/07/11 04:43:54;;;;;;;9.05;7.15;;;;;;;-141.20;100.00;60650.00;5047420;28;20048;-73
2023/07/11 04:46:19;;;;;;;9.00;7.25;;;;;;;-141.20;100.00;60650.00;5035804;28;20108;-74
2023/07/11 04:48:45;;;;;;;11.88;7.00;;;;;;;-141.20;100.00;60650.00;5051847;28;20403;-73
2023/07/11 04:51:11;;;;;;;11.43;8.05;;;;;;;-141.20;100.00;60650.00;5048538;28;20534;-74
2023/07/11 04:53:36;;;;;;;9.60;7.20;;;;;;;-141.20;100.00;60650.00;5070354;28;20040;-74
2023/07/11 04:56:04;;;;;;;10.23;6.78;;;;;;;-141.20;100.00;60650.00;5036008;28;20155;-73
2023/07/11 04:58:30;;;;;;;12.30;7.82;;;;;;;-141.20;100.00;60650.00;5050544;28;20533;-73
2023/07/11 05:01:00;;;;;;;11.27;7.35;;;;;;;-141.20;100.00;60650.00;5063638;28;20502;-73
2023/07/11 05:03:26;;;;;;;12.75;7.53;;;;;;;-141.20;100.00;60650.00;5063538;28;20024;-74
2023/07/11 05:05:51;;;;;;;13.73;7.10;;;;;;;-141.20;100.00;60650.00;5034680;28;20390;-73
2023/07/11 05:08:17;;;;;;;10.05;6.20;;;;;;;-141.20;100.00;60650.00;5063489;28;20044;-74
2023/07/11 05:11:05;;;;;;;9.75;7.43;;;;;;;-141.20;100.00;60650.00;5064963;28;20025;-72
2023/07/11 05:13:31;;;;;;;9.85;7.32;;;;;;;-141.20;100.00;60650.00;5045522;28;20033;-71
2023/07/11 05:16:05;;;;;;;8.18;7.10;;;;;;;-141.20;100.00;60650.00;5070119;28;20160;-71
2023/07/11 05:18:31;;;;;;;9.05;7.30;;;;;;;-141.20;100.00;60650.00;5053630;28;20403;-71
2023/07/11 05:20:58;;;;;;;9.13;7.25;;;;;;;-141.20;100.00;60650.00;5060769;28;20036;-71
2023/07/11 05:23:25;;;;;;;9.63;7.70;;;;;;;-141.20;100.00;60650.00;5047037;28;20627;-71
2023/07/11 05:25:50;;;;;;;11.38;7.53;;;;;;;-141.20;100.00;60650.00;5049979;28;20100;-71
2023/07/11 05:28:16;;;;;;;9.52;7.85;;;;;;;-141.20;100.00;60650.00;5029685;28;20120;-71
2023/07/11 05:30:42;;;;;;;11.45;7.03;;;;;;;-141.20;100.00;60650.00;5051192;28;20120;-72
2023/07/11 05:33:07;;;;;;;12.05;7.30;;;;;;;-141.20;100.00;60650.00;5063197;28;20649;-71
2023/07/11 05:39:06;;;;;;;9.23;7.13;;;;;;;-141.20;100.00;60650.00;5070146;28;20070;-71
2023/07/11 05:41:33;;;;;;;8.40;7.28;;;;;;;-141.20;100.00;60650.00;5049837;28;20025;-71
2023/07/11 05:43:58;;;;;;;8.80;7.22;;;;;;;-141.20;100.00;60650.00;5051763;28;20025;-72
2023/07/11 05:46:24;;;;;;;9.30;7.13;;;;;;;-141.20;100.00;60650.00;5050469;28;20097;-71
2023/07/11 05:48:50;;;;;;;10.77;7.70;;;;;;;-141.20;100.00;60650.00;5064035;28;20115;-71
2023/07/11 05:51:16;;;;;;;8.98;7.55;;;;;;;-141.20;100.00;60650.00;5060845;28;20120;-71
2023/07/11 05:53:42;;;;;;;10.68;7.32;;;;;;;-141.20;100.00;60650.00;5069371;28;20025;-71
2023/07/11 05:56:08;;;;;;;9.95;7.60;;;;;;;-141.20;100.00;60650.00;5066414;28;20036;-70
2023/07/11 05:58:35;;;;;;;10.48;7.28;;;;;;;-141.20;100.00;60650.00;5056960;28;20051;-71
2023/07/11 06:01:00;;;;;;;10.10;7.95;;;;;;;-141.20;100.00;60650.00;5063194;28;20037;-71
2023/07/11 06:03:29;;;;;;;12.50;7.65;;;;;;;-141.20;100.00;60650.00;5062149;28;20029;-71
2023/07/11 06:05:59;;;;;;;9.93;7.65;;;;;;;-141.20;100.00;60650.00;5069557;28;20040;-70
2023/07/11 06:08:24;;;;;;;10.48;8.82;;;;;;;-141.20;100.00;60650.00;5036212;28;20037;-71
2023/07/11 06:10:49;;;;;;;9.48;7.30;;;;;;;-141.20;100.00;60650.00;5065074;28;20028;-70
2023/07/11 06:13:15;;;;;;;9.85;7.70;;;;;;;-141.20;100.00;60650.00;5066480;28;20041;-71
2023/07/11 06:15:40;;;;;;;10.55;8.02;;;;;;;-141.20;100.00;60650.00;5063468;28;20063;-71
2023/07/11 06:18:06;;;;;;;10.82;8.00;;;;;;;-141.20;100.00;60650.00;5059960;28;20032;-71
2023/07/11 06:20:32;;;;;;;11.77;8.00;;;;;;;-141.20;100.00;60650.00;5069321;28;20024;-70
2023/07/11 06:22:57;;;;;;;10.93;9.57;;;;;;;-141.20;100.00;60650.00;5056075;28;20037;-72
2023/07/11 06:25:23;;;;;;;11.50;9.35;;;;;;;-141.20;100.00;60650.00;5065950;28;20386;-70
2023/07/11 06:27:48;;;;;;;12.50;9.32;;;;;;;-141.20;100.00;60650.00;5052983;28;20494;-71
2023/07/11 06:30:14;;;;;;;10.70;9.15;;;;;;;-141.20;100.00;60650.00;5059566;28;20032;-73
2023/07/11 06:32:39;;;;;;;12.73;9.95;;;;;;;-141.20;100.00;60650.00;5073242;28;20116;-73
2023/07/11 06:35:05;;;;;;;11.68;9.63;;;;;;;-141.20;100.00;60650.00;5059644;28;20028;-72
2023/07/11 06:37:30;;;;;;;13.23;9.40;;;;;;;-141.20;100.00;60650.00;5061491;28;20039;-73
2023/07/11 06:39:55;;;;;;;12.93;10.27;;;;;;;-141.20;100.00;60650.00;5054290;28;20449;-73
2023/07/11 06:42:21;;;;;;;12.18;10.13;;;;;;;-141.20;100.00;60650.00;5048989;28;20097;-73
2023/07/11 06:44:47;;;;;;;14.55;10.38;;;;;;;-141.20;100.00;60650.00;5052698;28;20477;-72
2023/07/11 06:47:12;;;;;;;15.35;10.35;;;;;;;-141.20;100.00;60650.00;5064547;28;20082;-71
2023/07/11 06:49:38;;;;;;;12.38;9.73;;;;;;;-141.20;100.00;60650.00;5068975;28;20082;-74
2023/07/11 06:52:03;;;;;;;12.82;9.30;;;;;;;-141.20;100.00;60650.00;5036570;28;20043;-74
2023/07/11 06:54:29;;;;;;;13.45;9.57;;;;;;;-141.20;100.00;60650.00;5066028;28;20044;-73
2023/07/11 06:56:57;;;;;;;11.70;9.95;;;;;;;-141.20;100.00;60650.00;5031035;28;20043;-73
2023/07/11 06:59:22;;;;;;;11.15;9.38;;;;;;;-141.20;100.00;60650.00;5072718;28;20040;-73
2023/07/11 07:01:48;;;;;;;11.23;9.80;;;;;;;-141.20;100.00;60650.00;5072646;28;20041;-73
2023/07/11 07:04:14;;;;;;;13.48;9.95;;;;;;;-141.20;100.00;60650.00;5055753;28;20417;-73
2023/07/11 07:06:40;;;;;;;14.68;8.85;;;;;;;-141.20;100.00;60650.00;5059923;28;20033;-74
2023/07/11 07:09:06;;;;;;;11.18;9.23;;;;;;;-141.20;100.00;60650.00;5053569;28;20039;-73
2023/07/11 07:11:35;;;;;;;12.35;9.38;;;;;;;-141.20;100.00;60650.00;5052600;28;20032;-74
2023/07/11 07:14:01;;;;;;;13.18;9.85;;;;;;;-141.20;100.00;60650.00;5035786;28;20036;-74
2023/07/11 07:16:28;;;;;;;12.35;9.23;;;;;;;-141.20;100.00;60650.00;5053500;28;20041;-74
2023/07/11 07:18:54;;;;;;;11.32;9.43;;;;;;;-141.20;100.00;60650.00;5059164;28;20025;-75
2023/07/11 07:21:20;;;;;;;11.60;8.68;;;;;;;-141.20;100.00;60650.00;5059945;28;20033;-74
2023/07/11 07:23:45;;;;;;;13.32;9.65;;;;;;;-141.20;100.00;60650.00;5051874;28;20094;-74
2023/07/11 07:26:10;;;;;;;11.05;9.43;;;;;;;-141.20;100.00;60650.00;5052161;28;20045;-74
2023/07/11 07:28:36;;;;;;;14.40;10.05;;;;;;;-141.20;100.00;60650.00;5065432;28;20102;-73
2023/07/11 07:31:05;;;;;;;17.92;10.25;;;;;;;-141.20;100.00;60650.00;5064870;28;20036;-73
2023/07/11 07:33:31;;;;;;;11.40;9.55;;;;;;;-141.20;100.00;60650.00;5070821;28;20056;-73
2023/07/11 07:36:05;;;;;;;14.00;9.65;;;;;;;-141.20;100.00;60650.00;5068967;28;20025;-73
2023/07/11 07:38:31;;;;;;;13.02;8.55;;;;;;;-141.20;100.00;60650.00;5070073;28;20119;-74
2023/07/11 07:40:58;;;;;;;10.88;9.38;;;;;;;-141.20;100.00;60650.00;5070158;28;20052;-73
2023/07/11 07:43:24;;;;;;;10.25;8.43;;;;;;;-141.20;100.00;60650.00;5069760;28;20115;-74
2023/07/11 07:45:50;;;;;;;12.38;9.40;;;;;;;-141.20;100.00;60650.00;5040559;28;20096;-73
2023/07/11 07:48:17;;;;;;;11.98;9.15;;;;;;;-141.20;100.00;60650.00;5070837;28;20123;-73
2023/07/11 07:50:42;;;;;;;11.70;9.57;;;;;;;-141.20;100.00;60650.00;5054449;28;20021;-73
2023/07/11 07:53:08;;;;;;;11.50;9.50;;;;;;;-141.20;100.00;60650.00;5067182;28;20485;-74
2023/07/11 07:55:36;;;;;;;12.48;9.10;;;;;;;-141.20;100.00;60650.00;5068714;28;20097;-73
2023/07/11 07:58:02;;;;;;;13.75;9.00;;;;;;;-141.20;100.00;60650.00;5067966;28;20028;-74
2023/07/11 08:00:27;;;;;;;12.05;8.77;;;;;;;-141.20;100.00;60650.00;5052829;28;20021;-74
2023/07/11 08:02:53;;;;;;;12.02;8.88;;;;;;;-141.20;100.00;60650.00;5066796;28;20036;-74
2023/07/11 08:05:19;;;;;;;11.00;9.10;;;;;;;-141.20;100.00;60650.00;5071863;28;20489;-74
2023/07/11 08:07:45;;;;;;;12.35;8.70;;;;;;;-141.20;100.00;60650.00;5058660;28;20058;-74
2023/07/11 08:10:11;;;;;;;11.20;8.30;;;;;;;-141.20;100.00;60650.00;5054116;28;20098;-73
2023/07/11 08:12:36;;;;;;;15.85;8.70;;;;;;;-141.20;100.00;60650.00;5041531;28;20482;-73
2023/07/11 08:15:03;;;;;;;12.57;8.77;;;;;;;-141.20;100.00;60650.00;5057488;28;20463;-73
2023/07/11 08:17:29;;;;;;;13.32;7.93;;;;;;;-141.20;100.00;60650.00;5051377;28;20029;-74
2023/07/11 08:19:54;;;;;;;12.65;8.18;;;;;;;-141.20;100.00;60650.00;5034652;28;20415;-73
2023/07/11 08:22:20;;;;;;;11.27;7.55;;;;;;;-141.20;100.00;60650.00;5052614;28;20033;-74
2023/07/11 08:24:45;;;;;;;12.68;6.97;;;;;;;-141.20;100.00;60650.00;5034335;28;20100;-73
2023/07/11 08:27:10;;;;;;;12.18;7.80;;;;;;;-141.20;100.00;60650.00;5034290;28;20494;-73
2023/07/11 08:29:37;;;;;;;8.77;7.10;;;;;;;-141.20;100.00;60650.00;5056804;28;20108;-74
2023/07/11 08:32:04;;;;;;;8.48;6.60;;;;;;;-141.20;100.00;60650.00;5059754;28;20116;-74
2023/07/11 08:34:29;;;;;;;11.05;6.75;;;;;;;-141.20;100.00;60650.00;5050906;28;20032;-73
2023/07/11 08:36:54;;;;;;;9.77;6.72;;;;;;;-141.20;100.00;60650.00;5046962;28;20081;-73
2023/07/11 08:39:20;;;;;;;12.20;6.43;;;;;;;-141.20;100.00;60650.00;5067271;28;20503;-73
2023/07/11 08:41:49;;;;;;;11.25;6.28;;;;;;;-141.20;100.00;60650.00;5054054;28;20029;-74
2023/07/11 08:44:32;;;;;;;10.48;6.63;;;;;;;-141.20;100.00;60650.00;5069481;28;20032;-73
2023/07/11 08:47:03;;;;;;;9.07;6.30;;;;;;;-141.20;100.00;60650.00;5060393;28;20115;-74
2023/07/11 08:49:35;;;;;;;9.13;6.55;;;;;;;-141.20;100.00;60650.00;5025880;28;20548;-73
2023/07/11 08:52:01;;;;;;;10.40;6.32;;;;;;;-141.20;100.00;60650.00;5032903;28;20482;-73
2023/07/11 08:54:48;;;;;;;9.70;6.28;;;;;;;-141.20;100.00;60650.00;5042809;28;20025;-74
2023/07/11 08:57:16;;;;;;;10.57;6.80;;;;;;;-141.20;100.00;60650.00;5057072;28;20037;-74
2023/07/11 08:59:50;;;;;;;9.25;6.25;;;;;;;-141.20;100.00;60650.00;5033814;28;20636;-73
2023/07/11 09:02:30;;;;;;;9.68;6.45;;;;;;;-141.20;100.00;60650.00;5050492;28;20037;-74
2023/07/11 09:04:57;;;;;;;7.57;6.63;;;;;;;-141.20;100.00;60650.00;5028488;28;20060;-74
2023/07/11 09:07:34;;;;;;;12.25;7.05;;;;;;;-141.20;100.00;60650.00;5035475;28;20090;-74
2023/07/11 09:10:00;;;;;;;10.48;6.75;;;;;;;-141.20;100.00;60650.00;5033893;28;20064;-74
2023/07/11 09:12:42;;;;;;;8.65;6.72;;;;;;;-141.20;100.00;60650.00;5033694;28;20114;-74
2023/07/11 09:15:07;;;;;;;11.73;6.97;;;;;;;-141.20;100.00;60650.00;5038356;28;20048;-74
2023/07/11 09:17:48;;;;;;;9.10;6.20;;;;;;;-141.20;100.00;60650.00;5051419;28;20021;-74
2023/07/11 09:20:22;;;;;;;12.00;5.93;;;;;;;-141.20;100.00;60650.00;5067263;28;20055;-74
2023/07/11 09:22:56;;;;;;;7.10;5.07;;;;;;;-141.20;100.00;60650.00;5058309;28;20052;-74
2023/07/11 09:25:34;;;;;;;6.72;5.13;;;;;;;-141.20;100.00;60650.00;5069620;28;20040;-74
2023/07/11 09:28:27;;;;;;;6.47;4.70;;;;;;;-141.20;100.00;60650.00;5052231;28;20029;-74
2023/07/11 09:30:58;;;;;;;7.75;5.45;;;;;;;-141.20;100.00;60650.00;5048227;28;20064;-74
2023/07/11 09:33:28;;;;;;;8.48;5.68;;;;;;;-141.20;100.00;60650.00;5063402;28;20044;-74
2023/07/11 09:35:55;;;;;;;8.23;6.32;;;;;;;-141.20;100.00;60650.00;5049906;28;20036;-75
2023/07/11 09:38:36;;;;;;;9.25;6.13;;;;;;;-141.20;100.00;60650.00;5033323;28;20040;-75
2023/07/11 09:41:17;;;;;;;8.98;5.95;;;;;;;-141.20;100.00;60650.00;5064625;28;20048;-75
2023/07/11 09:43:43;;;;;;;9.35;6.03;;;;;;;-141.20;100.00;60650.00;5045128;28;20514;-75
2023/07/11 09:46:13;;;;;;;7.38;5.65;;;;;;;-141.20;100.00;60650.00;5063126;28;20017;-74
2023/07/11 09:48:40;;;;;;;8.27;6.25;;;;;;;-141.20;100.00;60650.00;5060606;28;20043;-75
2023/07/11 09:51:10;;;;;;;9.27;6.47;;;;;;;-141.20;100.00;60650.00;5052146;28;20518;-74
2023/07/11 09:53:36;;;;;;;7.90;6.15;;;;;;;-141.20;100.00;60650.00;5061148;28;20086;-74
2023/07/11 09:56:04;;;;;;;7.93;6.03;;;;;;;-141.20;100.00;60650.00;5034959;28;20064;-75
2023/07/11 09:58:32;;;;;;;8.45;5.90;;;;;;;-141.20;100.00;60650.00;5061638;28;20058;-75
2023/07/11 10:01:00;;;;;;;10.18;5.82;;;;;;;-141.20;100.00;60650.00;5060343;28;20020;-75
2023/07/11 10:03:27;;;;;;;9.13;5.32;;;;;;;-141.20;100.00;60650.00;5061540;28;20490;-75
2023/07/11 10:05:53;;;;;;;8.77;6.30;;;;;;;-141.20;100.00;60650.00;5052883;28;20027;-75
2023/07/11 10:08:21;;;;;;;7.53;5.18;;;;;;;-141.20;100.00;60650.00;5054769;28;20033;-74
2023/07/11 10:10:48;;;;;;;8.25;6.35;;;;;;;-141.20;100.00;60650.00;5066198;28;20036;-75
2023/07/11 10:13:15;;;;;;;6.95;6.13;;;;;;;-141.20;100.00;60650.00;5070339;28;20029;-76
2023/07/11 10:15:40;;;;;;;9.65;6.35;;;;;;;-141.20;100.00;60650.00;5051067;28;20024;-75
2023/07/11 10:18:18;;;;;;;8.25;6.32;;;;;;;-141.20;100.00;60650.00;5067238;28;20036;-75
2023/07/11 10:20:46;;;;;;;7.45;6.03;;;;;;;-141.20;100.00;60650.00;5041029;28;20119;-75
2023/07/11 10:23:13;;;;;;;7.90;6.03;;;;;;;-141.20;100.00;60650.00;5043430;28;20036;-74
2023/07/11 10:25:43;;;;;;;9.88;6.03;;;;;;;-141.20;100.00;60650.00;5053472;28;20549;-75
2023/07/11 10:28:26;;;;;;;9.23;6.70;;;;;;;-141.20;100.00;60650.00;5068104;28;20028;-75
2023/07/11 10:30:52;;;;;;;7.32;6.13;;;;;;;-141.20;100.00;60650.00;5062608;28;20037;-75
2023/07/11 10:33:30;;;;;;;10.75;6.05;;;;;;;-141.20;100.00;60650.00;5050785;28;20016;-74
2023/07/11 10:36:03;;;;;;;8.82;6.38;;;;;;;-141.20;100.00;60650.00;5065799;28;20051;-75
2023/07/11 10:38:44;;;;;;;8.63;6.43;;;;;;;-141.20;100.00;60650.00;5043456;28;20033;-75
2023/07/11 10:41:17;;;;;;;7.53;6.20;;;;;;;-141.20;100.00;60650.00;5060964;28;20036;-75
2023/07/11 10:43:43;;;;;;;9.75;6.63;;;;;;;-141.20;100.00;60650.00;5056344;28;20036;-75
2023/07/11 10:46:18;;;;;;;11.00;6.35;;;;;;;-141.20;100.00;60650.00;5069900;28;20433;-74
2023/07/11 10:48:54;;;;;;;;;;;;;;;-141.20;100.00;60650.00;5064449;28;20044;-75
2023/07/11 10:51:27;;;;;;;8.55;6.82;;;;;;;-141.20;100.00;60650.00;5059578;28;19918;-75
2023/07/11 10:54:18;;;;;;;7.43;6.43;;;;;;;-141.20;100.00;60650.00;5059332;28;20090;-74
2023/07/11 10:56:46;;;;;;;9.07;7.30;;;;;;;-141.20;100.00;60650.00;5042949;28;20045;-75
2023/07/11 10:59:13;;;;;;;8.75;6.72;;;;;;;-141.20;100.00;60650.00;5056271;28;20082;-74
2023/07/11 11:01:59;;;;;;;8.15;6.85;;;;;;;-141.20;100.00;60650.00;5072846;28;20041;-75
2023/07/11 11:04:40;;;;;;;9.02;6.35;;;;;;;-141.20;100.00;60650.00;5042588;28;20042;-75
2023/07/11 11:07:07;;;;;;;8.30;6.72;;;;;;;-141.20;100.00;60650.00;5058337;28;20102;-74
2023/07/11 11:09:42;;;;;;;9.15;6.97;;;;;;;-141.20;100.00;60650.00;5052519;28;20032;-75
2023/07/11 11:12:37;;;;;;;7.47;6.05;;;;;;;-141.20;100.00;60650.00;5053039;28;20131;-75